Time;durP1;ratioP1;P1;durP2;ratioP2;P2;SDS_P1;SDS_P2;PMS_P1;PMS_P2;Temp;Humidity;BMP_temperature;BMP_pressure;BME280_temperature;BME280_humidity;BME280_pressure;Samples;Min_cycle;Max_cycle;Signal;HPM_P1;HPM_P2
2023/07/18 00:00:20;;;;;;;19.52;10.48;;;24.10;99.90;;;;;;4993109;28;20412;-80
2023/07/18 00:02:47;;;;;;;19.65;10.77;;;24.00;99.90;;;;;;4996571;28;20034;-78
2023/07/18 00:05:14;;;;;;;16.90;10.88;;;24.00;99.90;;;;;;4995952;28;20042;-80
2023/07/18 00:07:42;;;;;;;17.73;10.75;;;24.00;99.90;;;;;;4995483;28;20049;-80
2023/07/18 00:10:11;;;;;;;21.92;10.57;;;23.90;99.90;;;;;;4993973;28;20058;-79
2023/07/18 00:12:38;;;;;;;19.40;10.23;;;23.90;99.90;;;;;;4996429;28;20034;-80
2023/07/18 00:15:09;;;;;;;15.25;10.25;;;23.90;99.90;;;;;;4994997;28;20409;-80
2023/07/18 00:17:39;;;;;;;15.98;9.80;;;23.90;99.90;;;;;;4998030;28;20038;-80
2023/07/18 00:20:09;;;;;;;15.60;10.20;;;24.00;99.90;;;;;;4996813;28;20053;-81
2023/07/18 00:22:37;;;;;;;14.85;9.20;;;24.00;99.90;;;;;;4994588;28;20053;-81
2023/07/18 00:25:06;;;;;;;12.73;9.20;;;23.90;99.90;;;;;;4994519;28;20039;-81
2023/07/18 00:27:34;;;;;;;17.85;9.32;;;23.90;99.90;;;;;;4996469;28;20073;-80
2023/07/18 00:30:01;;;;;;;11.95;8.55;;;23.80;99.90;;;;;;4996430;28;20057;-80
2023/07/18 00:32:29;;;;;;;13.27;8.95;;;23.70;99.90;;;;;;4995902;28;20100;-79
2023/07/18 00:34:57;;;;;;;11.23;8.75;;;23.70;99.90;;;;;;4995298;28;20038;-81
2023/07/18 00:37:25;;;;;;;12.40;8.68;;;23.70;99.90;;;;;;4994429;28;20034;-79
2023/07/18 00:39:53;;;;;;;11.25;8.73;;;23.70;99.90;;;;;;4994312;28;20057;-80
2023/07/18 00:42:20;;;;;;;15.02;11.13;;;23.70;99.90;;;;;;4993738;28;20052;-81
2023/07/18 00:44:50;;;;;;;14.68;9.95;;;23.60;99.90;;;;;;4996402;28;20065;-80
2023/07/18 00:47:18;;;;;;;14.65;9.45;;;23.60;99.90;;;;;;4996649;28;20050;-81
2023/07/18 00:49:46;;;;;;;12.07;8.75;;;23.60;99.90;;;;;;4994336;28;20037;-81
2023/07/18 00:52:16;;;;;;;12.32;9.68;;;23.50;99.90;;;;;;4993747;28;20031;-81
2023/07/18 00:54:45;;;;;;;15.32;9.80;;;23.50;99.90;;;;;;4995161;28;20050;-80
2023/07/18 00:57:13;;;;;;;16.17;9.93;;;23.50;99.90;;;;;;4995874;28;20116;-80
2023/07/18 00:59:40;;;;;;;16.98;10.13;;;23.50;99.90;;;;;;4994637;28;20539;-81
2023/07/18 01:02:09;;;;;;;14.38;9.68;;;23.50;99.90;;;;;;4994198;28;20052;-80
2023/07/18 01:04:36;;;;;;;14.40;9.98;;;23.40;99.90;;;;;;4995432;28;20124;-80
2023/07/18 01:07:04;;;;;;;14.35;10.32;;;23.40;99.90;;;;;;4994052;28;20046;-80
2023/07/18 01:09:33;;;;;;;12.90;9.57;;;23.40;99.90;;;;;;4994883;28;20476;-80
2023/07/18 01:12:01;;;;;;;15.23;9.75;;;23.40;99.90;;;;;;4995300;28;20498;-80
2023/07/18 01:14:28;;;;;;;18.02;9.77;;;23.30;99.90;;;;;;4995572;28;20073;-80
2023/07/18 01:16:56;;;;;;;16.25;10.73;;;23.30;99.90;;;;;;4994698;28;20053;-80
2023/07/18 01:19:24;;;;;;;15.48;10.68;;;23.30;99.90;;;;;;4992400;28;20496;-80
2023/07/18 01:21:53;;;;;;;16.23;10.73;;;23.30;99.90;;;;;;4995189;28;20061;-80
2023/07/18 01:24:22;;;;;;;15.65;10.40;;;23.20;99.90;;;;;;4993109;28;20088;-81
2023/07/18 01:26:51;;;;;;;13.52;10.38;;;23.20;99.90;;;;;;4993804;28;20560;-80
2023/07/18 01:29:18;;;;;;;15.23;10.50;;;23.10;99.90;;;;;;4993370;28;20054;-81
2023/07/18 01:31:48;;;;;;;15.63;9.95;;;23.00;99.90;;;;;;4993494;28;20040;-79
2023/07/18 01:34:15;;;;;;;15.13;10.65;;;23.00;99.90;;;;;;4993538;28;20046;-81
2023/07/18 01:36:44;;;;;;;13.43;9.90;;;22.90;99.90;;;;;;4993172;28;20037;-80
2023/07/18 01:39:14;;;;;;;16.70;10.60;;;23.00;99.90;;;;;;4993417;28;20046;-80
2023/07/18 01:41:41;;;;;;;17.52;11.40;;;23.00;99.90;;;;;;4994729;28;20061;-80
2023/07/18 01:44:09;;;;;;;13.73;10.43;;;22.90;99.90;;;;;;4996074;28;20049;-79
2023/07/18 01:46:36;;;;;;;13.05;10.68;;;22.90;99.90;;;;;;4993465;28;20048;-80
2023/07/18 01:49:04;;;;;;;16.38;11.68;;;23.00;99.90;;;;;;4993736;28;20047;-80
2023/07/18 01:51:31;;;;;;;16.42;10.85;;;23.10;99.90;;;;;;4995551;28;20034;-80
2023/07/18 01:53:59;;;;;;;13.52;11.20;;;23.00;99.90;;;;;;4993796;28;20112;-79
2023/07/18 01:56:27;;;;;;;14.60;11.30;;;23.00;99.90;;;;;;4993545;28;20120;-80
2023/07/18 01:58:55;;;;;;;14.43;10.27;;;22.90;99.90;;;;;;4992863;28;20061;-79
2023/07/18 02:01:22;;;;;;;12.02;9.80;;;22.90;99.90;;;;;;4993055;28;20045;-80
2023/07/18 02:03:50;;;;;;;16.98;10.68;;;22.90;99.90;;;;;;4995323;28;20481;-80
2023/07/18 02:06:17;;;;;;;17.95;11.63;;;23.00;99.90;;;;;;5009805;28;20046;-80
2023/07/18 02:08:44;;;;;;;13.23;11.00;;;22.80;99.90;;;;;;4991073;28;20618;-80
2023/07/18 02:11:12;;;;;;;13.88;10.80;;;22.80;99.90;;;;;;4993890;28;20105;-81
2023/07/18 02:13:41;;;;;;;15.27;10.70;;;22.80;99.90;;;;;;4994599;28;20042;-80
2023/07/18 02:16:12;;;;;;;13.18;11.50;;;22.60;99.90;;;;;;4994097;28;20049;-79
2023/07/18 02:18:43;;;;;;;15.48;11.75;;;22.70;99.90;;;;;;4993956;28;20030;-80
2023/07/18 02:21:10;;;;;;;20.08;11.60;;;22.50;99.90;;;;;;4994606;28;20615;-80
2023/07/18 02:23:38;;;;;;;14.25;11.13;;;22.50;99.90;;;;;;4991952;28;20049;-80
2023/07/18 02:26:05;;;;;;;13.93;10.73;;;22.50;99.90;;;;;;4994163;28;20038;-81
2023/07/18 02:28:33;;;;;;;16.98;10.88;;;22.50;99.90;;;;;;4996682;28;20034;-81
2023/07/18 02:31:02;;;;;;;17.17;12.02;;;22.50;99.90;;;;;;5000274;28;20057;-81
2023/07/18 02:33:29;;;;;;;14.10;11.55;;;22.50;99.90;;;;;;5002330;28;20030;-81
2023/07/18 02:35:57;;;;;;;15.77;12.02;;;22.50;99.90;;;;;;5019059;28;20094;-82
2023/07/18 02:38:24;;;;;;;14.70;11.02;;;22.50;99.90;;;;;;5016953;28;20025;-81
2023/07/18 02:40:52;;;;;;;16.52;11.77;;;22.50;99.90;;;;;;4993385;28;20212;-82
2023/07/18 02:43:19;;;;;;;19.20;11.35;;;22.40;99.90;;;;;;4993150;28;20039;-82
2023/07/18 02:45:48;;;;;;;14.00;11.27;;;22.40;99.90;;;;;;4990470;28;20046;-81
2023/07/18 02:48:16;;;;;;;20.17;12.35;;;22.40;99.90;;;;;;4996997;28;20037;-81
2023/07/18 02:50:44;;;;;;;19.08;12.02;;;22.30;99.90;;;;;;4992756;28;20062;-80
2023/07/18 02:53:12;;;;;;;14.20;11.10;;;22.30;99.90;;;;;;4996993;28;20445;-79
2023/07/18 02:55:39;;;;;;;15.38;12.48;;;22.30;99.90;;;;;;4991370;28;20038;-80
2023/07/18 02:58:06;;;;;;;14.80;12.45;;;22.40;99.90;;;;;;4995513;28;20117;-79
2023/07/18 03:00:36;;;;;;;15.48;11.82;;;22.30;99.90;;;;;;4993090;28;20113;-80
2023/07/18 03:03:03;;;;;;;14.15;12.18;;;22.40;99.90;;;;;;4990937;28;20145;-80
2023/07/18 03:05:33;;;;;;;14.70;12.23;;;22.30;99.90;;;;;;4992760;28;20474;-80
2023/07/18 03:08:00;;;;;;;17.90;11.80;;;22.30;99.90;;;;;;4996187;28;20117;-81
2023/07/18 03:10:29;;;;;;;14.98;12.55;;;22.30;99.90;;;;;;4997913;28;20082;-80
2023/07/18 03:12:56;;;;;;;13.13;11.52;;;22.40;99.90;;;;;;4995420;28;20549;-81
2023/07/18 03:15:24;;;;;;;19.00;11.90;;;22.30;99.90;;;;;;4996254;28;20096;-80
2023/07/18 03:17:52;;;;;;;17.63;12.82;;;22.30;99.90;;;;;;4997127;28;20404;-80
2023/07/18 03:20:19;;;;;;;22.20;13.25;;;22.30;99.90;;;;;;4997246;28;20046;-81
2023/07/18 03:22:49;;;;;;;17.52;13.13;;;22.40;99.90;;;;;;4995038;28;20046;-80
2023/07/18 03:25:19;;;;;;;16.80;12.25;;;22.40;99.90;;;;;;4995371;28;20042;-82
2023/07/18 03:27:48;;;;;;;19.65;12.32;;;22.40;99.90;;;;;;4995819;28;20506;-81
2023/07/18 03:30:16;;;;;;;17.48;12.13;;;22.40;99.90;;;;;;4996041;28;20034;-80
2023/07/18 03:32:43;;;;;;;18.05;13.05;;;22.40;99.90;;;;;;4995695;28;20100;-80
2023/07/18 03:35:14;;;;;;;15.10;11.60;;;22.50;99.90;;;;;;4994678;28;20120;-81
2023/07/18 03:37:41;;;;;;;18.83;12.82;;;22.50;99.90;;;;;;4995784;28;20043;-80
2023/07/18 03:40:15;;;;;;;17.55;12.70;;;22.40;99.90;;;;;;4996413;28;20122;-81
2023/07/18 03:42:42;;;;;;;16.27;13.35;;;22.50;99.90;;;;;;4993562;28;20097;-82
2023/07/18 03:45:13;;;;;;;17.35;11.85;;;22.60;99.90;;;;;;4996407;28;20041;-81
2023/07/18 03:47:41;;;;;;;14.27;12.43;;;22.60;99.90;;;;;;4997242;28;20034;-82
2023/07/18 03:50:11;;;;;;;16.55;12.55;;;22.70;99.90;;;;;;4994966;28;20077;-81
2023/07/18 03:52:39;;;;;;;18.27;13.55;;;22.70;99.90;;;;;;4995247;28;20485;-81
2023/07/18 03:55:09;;;;;;;18.52;13.25;;;22.70;99.90;;;;;;4996311;28;20073;-81
2023/07/18 03:57:37;;;;;;;17.52;14.00;;;22.70;99.90;;;;;;4996439;28;20448;-81
2023/07/18 04:00:12;;;;;;;18.48;13.88;;;22.70;99.90;;;;;;4996741;28;20560;-82
2023/07/18 04:02:39;;;;;;;14.90;12.63;;;22.90;99.90;;;;;;4996292;28;20049;-81
2023/07/18 04:05:07;;;;;;;16.25;11.20;;;23.40;99.90;;;;;;4996408;28;20062;-80
2023/07/18 04:07:34;;;;;;;13.85;10.80;;;24.20;99.90;;;;;;4994720;28;20413;-79
2023/07/18 04:10:02;;;;;;;17.02;10.55;;;24.80;99.90;;;;;;4996241;28;20050;-79
2023/07/18 04:12:30;;;;;;;12.90;10.30;;;25.40;99.90;;;;;;4996255;28;20382;-79
2023/07/18 04:14:58;;;;;;;15.75;10.40;;;25.90;99.90;;;;;;4996059;28;20070;-79
2023/07/18 04:17:25;;;;;;;14.85;10.63;;;26.30;99.90;;;;;;4994871;28;20030;-79
2023/07/18 04:19:53;;;;;;;12.88;10.73;;;26.80;99.90;;;;;;4994978;28;20043;-78
2023/07/18 04:22:20;;;;;;;14.23;10.60;;;26.90;99.90;;;;;;4995966;28;20117;-80
2023/07/18 04:24:48;;;;;;;17.00;10.43;;;27.00;99.90;;;;;;4995570;28;20088;-78
2023/07/18 04:27:15;;;;;;;15.45;10.27;;;27.50;99.90;;;;;;4994382;28;20034;-78
2023/07/18 04:29:46;;;;;;;12.02;9.07;;;27.80;99.90;;;;;;4995409;28;20501;-78
2023/07/18 04:32:13;;;;;;;14.18;9.88;;;28.10;99.90;;;;;;4993005;28;20073;-80
2023/07/18 04:34:42;;;;;;;16.50;9.65;;;28.50;99.90;;;;;;4996076;28;20143;-78
2023/07/18 04:37:09;;;;;;;12.23;9.40;;;29.50;99.90;;;;;;4995823;28;20041;-78
2023/07/18 04:39:36;;;;;;;12.73;9.18;;;30.20;99.90;;;;;;4995525;28;20074;-78
2023/07/18 04:42:05;;;;;;;10.27;8.93;;;30.40;99.90;;;;;;4997168;28;20065;-78
2023/07/18 04:44:32;;;;;;;15.07;9.18;;;31.30;99.90;;;;;;4996943;28;20076;-79
2023/07/18 04:47:01;;;;;;;14.77;9.15;;;31.60;99.90;;;;;;4994992;28;20042;-79
2023/07/18 04:49:30;;;;;;;19.15;9.63;;;30.70;99.90;;;;;;4993521;28;20030;-80
2023/07/18 04:51:58;;;;;;;13.38;8.90;;;30.60;99.90;;;;;;4995200;28;20056;-79
2023/07/18 04:54:25;;;;;;;15.57;8.90;;;31.50;99.90;;;;;;4994857;28;20030;-79
2023/07/18 04:56:53;;;;;;;14.07;9.23;;;32.40;99.90;;;;;;4995550;28;20053;-79
2023/07/18 04:59:20;;;;;;;17.08;10.48;;;33.10;99.90;;;;;;4993549;28;20042;-78
2023/07/18 05:01:51;;;;;;;18.80;10.93;;;33.50;99.90;;;;;;4993622;28;20097;-80
2023/07/18 05:04:20;;;;;;;14.50;8.98;;;33.60;99.90;;;;;;4994728;28;20445;-79
2023/07/18 05:06:48;;;;;;;13.30;9.27;;;33.50;99.90;;;;;;4996134;28;20548;-78
2023/07/18 05:09:16;;;;;;;12.50;9.00;;;33.00;99.90;;;;;;4999121;28;20560;-79
2023/07/18 05:11:43;;;;;;;11.95;9.45;;;32.70;99.90;;;;;;5000634;28;20174;-78
2023/07/18 05:14:10;;;;;;;11.23;9.45;;;33.00;99.90;;;;;;4994692;28;20073;-79
2023/07/18 05:16:37;;;;;;;14.55;10.07;;;34.10;99.90;;;;;;4994068;28;20109;-79
2023/07/18 05:19:05;;;;;;;15.02;9.60;;;35.00;99.90;;;;;;4991924;28;20173;-79
2023/07/18 05:21:34;;;;;;;19.08;10.80;;;35.70;99.90;;;;;;4994073;28;20077;-80
2023/07/18 05:24:01;;;;;;;19.00;12.55;;;36.30;99.90;;;;;;4990479;28;20074;-78
2023/07/18 05:26:28;;;;;;;14.88;10.55;;;36.70;99.90;;;;;;4993122;28;20478;-78
2023/07/18 05:28:56;;;;;;;15.57;9.77;;;37.20;99.90;;;;;;4991374;28;20073;-77
2023/07/18 05:31:23;;;;;;;14.05;10.35;;;37.10;99.90;;;;;;4994874;28;20113;-79
2023/07/18 05:33:51;;;;;;;27.42;12.48;;;37.10;99.90;;;;;;4993001;28;20058;-79
2023/07/18 05:36:19;;;;;;;13.95;11.15;;;37.60;99.90;;;;;;4993964;28;20039;-77
2023/07/18 05:38:47;;;;;;;16.42;10.68;;;37.70;99.90;;;;;;4994144;28;20046;-78
2023/07/18 05:41:15;;;;;;;16.27;12.02;;;37.30;99.90;;;;;;4994777;28;20042;-78
2023/07/18 05:43:42;;;;;;;14.05;10.18;;;35.90;99.90;;;;;;4993061;28;20037;-78
2023/07/18 05:46:10;;;;;;;15.68;10.95;;;35.80;99.90;;;;;;4992351;28;20058;-78
2023/07/18 05:48:39;;;;;;;10.38;8.88;;;36.10;99.90;;;;;;4993146;28;20039;-77
2023/07/18 05:51:08;;;;;;;11.43;8.82;;;36.00;99.90;;;;;;4993097;28;20489;-79
2023/07/18 05:53:35;;;;;;;11.88;8.80;;;34.70;99.90;;;;;;4992119;28;20038;-77
2023/07/18 05:56:04;;;;;;;8.57;7.60;;;35.40;99.90;;;;;;4992609;28;20050;-78
2023/07/18 05:58:31;;;;;;;9.07;8.00;;;36.20;99.90;;;;;;4993554;28;20042;-77
2023/07/18 06:00:58;;;;;;;12.27;8.77;;;36.30;99.90;;;;;;4992681;28;20378;-77
2023/07/18 06:03:26;;;;;;;8.90;8.00;;;36.70;99.90;;;;;;4992429;28;20033;-78
2023/07/18 06:05:56;;;;;;;12.52;8.73;;;36.40;99.90;;;;;;4991826;28;20049;-78
2023/07/18 06:08:23;;;;;;;14.30;9.65;;;35.00;99.90;;;;;;4994827;28;20066;-77
2023/07/18 06:10:57;;;;;;;12.48;8.00;;;34.70;99.90;;;;;;4993519;28;20546;-77
2023/07/18 06:13:26;;;;;;;16.48;8.80;;;35.20;99.90;;;;;;4991334;28;20081;-77
2023/07/18 06:15:54;;;;;;;12.57;10.95;;;34.70;99.90;;;;;;4993734;28;20544;-78
2023/07/18 06:18:21;;;;;;;14.90;8.13;;;34.30;99.90;;;;;;4992309;28;20062;-79
2023/07/18 06:20:48;;;;;;;11.95;8.75;;;34.10;99.90;;;;;;4990904;28;20104;-78
2023/07/18 06:23:15;;;;;;;14.90;9.90;;;33.70;99.90;;;;;;4990968;28;20065;-79
2023/07/18 06:25:43;;;;;;;12.38;8.75;;;33.30;99.90;;;;;;4999511;28;20057;-78
2023/07/18 06:28:10;;;;;;;14.98;9.00;;;33.40;99.90;;;;;;5013214;28;20042;-79
2023/07/18 06:30:39;;;;;;;10.88;6.80;;;33.30;99.90;;;;;;5008033;28;20057;-78
2023/07/18 06:33:06;;;;;;;9.68;6.88;;;33.00;99.90;;;;;;4992326;28;20066;-79
2023/07/18 06:35:33;;;;;;;9.27;6.70;;;33.10;99.90;;;;;;4993642;28;20050;-77
2023/07/18 06:38:01;;;;;;;7.65;6.80;;;33.30;99.90;;;;;;4992061;28;20076;-77
2023/07/18 06:40:28;;;;;;;12.32;6.47;;;33.00;99.90;;;;;;4995231;28;20038;-78
2023/07/18 06:42:55;;;;;;;11.93;6.35;;;32.70;99.90;;;;;;4993484;28;20093;-79
2023/07/18 06:45:24;;;;;;;16.05;8.07;;;32.70;99.90;;;;;;4996709;28;20042;-78
2023/07/18 06:47:52;;;;;;;13.98;7.35;;;33.10;99.90;;;;;;4997641;28;20042;-80
2023/07/18 06:50:20;;;;;;;12.45;8.63;;;33.30;99.90;;;;;;4997894;28;20116;-79
2023/07/18 06:52:47;;;;;;;15.75;8.70;;;33.40;99.90;;;;;;5000198;28;20066;-79
2023/07/18 06:55:16;;;;;;;16.95;8.65;;;33.50;99.90;;;;;;5000054;28;20034;-78
2023/07/18 06:57:43;;;;;;;11.35;9.55;;;33.50;99.90;;;;;;4996521;28;20042;-76
2023/07/18 07:00:11;;;;;;;8.68;7.80;;;33.50;99.90;;;;;;4997184;28;20486;-78
2023/07/18 07:02:39;;;;;;;11.63;8.25;;;33.20;99.90;;;;;;4996576;28;20046;-78
2023/07/18 07:05:09;;;;;;;15.07;8.60;;;32.80;99.90;;;;;;4996813;28;20217;-78
2023/07/18 07:07:38;;;;;;;14.48;8.75;;;31.80;99.90;;;;;;4997148;28;20053;-79
2023/07/18 07:10:08;;;;;;;17.83;12.45;;;30.90;99.90;;;;;;4995083;28;20050;-78
2023/07/18 07:12:35;;;;;;;15.07;9.80;;;30.80;99.90;;;;;;4997637;28;20137;-78
2023/07/18 07:15:03;;;;;;;11.75;9.73;;;31.00;99.90;;;;;;4996535;28;20490;-78
2023/07/18 07:17:31;;;;;;;13.15;10.25;;;31.30;99.90;;;;;;4996134;28;20088;-78
2023/07/18 07:19:58;;;;;;;14.50;9.63;;;31.50;99.90;;;;;;4997233;28;20089;-79
2023/07/18 07:22:27;;;;;;;12.15;10.27;;;31.70;99.90;;;;;;4997339;28;20066;-77
2023/07/18 07:24:55;;;;;;;18.38;12.82;;;31.40;99.90;;;;;;4995386;28;20066;-78
2023/07/18 07:27:22;;;;;;;14.00;11.70;;;31.20;99.90;;;;;;4997205;28;20095;-79
2023/07/18 07:29:51;;;;;;;15.15;10.68;;;31.20;99.90;;;;;;4996120;28;20065;-79
2023/07/18 07:32:18;;;;;;;13.85;11.05;;;31.20;99.90;;;;;;4999194;28;20125;-76
2023/07/18 07:34:46;;;;;;;15.13;10.52;;;31.30;99.90;;;;;;4995421;28;20398;-78
2023/07/18 07:37:13;;;;;;;13.00;11.10;;;31.20;99.90;;;;;;4996118;28;20050;-79
2023/07/18 07:39:42;;;;;;;98.60;74.68;;;30.90;99.90;;;;;;4995568;28;20437;-77
2023/07/18 07:42:12;;;;;;;68.32;56.53;;;30.90;99.90;;;;;;4995289;28;20049;-79
2023/07/18 07:44:40;;;;;;;22.33;14.55;;;31.50;99.90;;;;;;4995282;28;20121;-78
2023/07/18 07:47:07;;;;;;;126.40;112.13;;;31.90;99.90;;;;;;4996745;28;20049;-77
2023/07/18 07:49:35;;;;;;;15.05;13.30;;;32.20;99.90;;;;;;4999067;28;20050;-84
2023/07/18 07:52:02;;;;;;;14.30;12.80;;;32.50;99.90;;;;;;4998085;28;20097;-80
2023/07/18 07:54:29;;;;;;;13.20;11.75;;;32.60;99.90;;;;;;4995278;28;20054;-79
2023/07/18 07:56:58;;;;;;;14.20;11.07;;;32.20;99.90;;;;;;4996986;28;20045;-82
2023/07/18 07:59:25;;;;;;;13.60;10.23;;;32.10;99.90;;;;;;4996976;28;20038;-80
2023/07/18 08:01:52;;;;;;;13.43;8.63;;;31.80;99.90;;;;;;4998697;28;20065;-79
2023/07/18 08:04:20;;;;;;;10.23;8.25;;;31.60;99.90;;;;;;4998455;28;20472;-80
2023/07/18 08:06:47;;;;;;;12.55;7.90;;;31.90;99.90;;;;;;4997154;28;20478;-82
2023/07/18 08:09:15;;;;;;;8.48;7.50;;;32.00;99.90;;;;;;4995692;28;20046;-79
2023/07/18 08:11:42;;;;;;;11.50;8.07;;;32.20;99.90;;;;;;4995811;28;20154;-79
2023/07/18 08:14:10;;;;;;;12.80;8.70;;;32.30;99.90;;;;;;4995706;28;20132;-80
2023/07/18 08:16:38;;;;;;;12.48;7.82;;;32.40;99.90;;;;;;4995105;28;20456;-80
2023/07/18 08:19:05;;;;;;;9.77;7.70;;;32.60;99.90;;;;;;4996046;28;20050;-79
2023/07/18 08:21:32;;;;;;;10.50;8.82;;;32.30;99.90;;;;;;4996142;28;20035;-81
2023/07/18 08:24:00;;;;;;;15.95;9.20;;;32.50;99.90;;;;;;5019332;28;20047;-80
2023/07/18 08:26:27;;;;;;;12.90;9.10;;;32.80;99.90;;;;;;4997001;28;20034;-80
2023/07/18 08:28:54;;;;;;;11.18;8.50;;;32.70;99.90;;;;;;4995920;28;20379;-80
2023/07/18 08:31:23;;;;;;;13.70;9.00;;;32.30;99.90;;;;;;4995033;28;20089;-80
2023/07/18 08:33:50;;;;;;;10.85;8.93;;;32.00;99.90;;;;;;4995336;28;20124;-82
2023/07/18 08:36:18;;;;;;;12.30;10.00;;;31.80;99.90;;;;;;4993860;28;20116;-80
2023/07/18 08:38:49;;;;;;;14.65;10.60;;;31.80;99.90;;;;;;4994899;28;20052;-80
2023/07/18 08:41:17;;;;;;;13.23;9.70;;;32.00;99.90;;;;;;4994972;28;20050;-80
2023/07/18 08:43:46;;;;;;;11.63;9.98;;;31.90;99.90;;;;;;4995736;28;20050;-80
2023/07/18 08:46:15;;;;;;;12.57;11.10;;;31.90;99.90;;;;;;4994630;28;20046;-80
2023/07/18 08:48:45;;;;;;;12.15;10.93;;;32.00;99.90;;;;;;4994223;28;20050;-81
2023/07/18 08:51:13;;;;;;;11.23;10.05;;;32.00;99.90;;;;;;4996848;28;20034;-80
2023/07/18 08:53:41;;;;;;;13.63;10.60;;;31.70;99.90;;;;;;4996446;28;20050;-80
2023/07/18 08:56:09;;;;;;;13.30;9.80;;;31.70;99.90;;;;;;4995247;28;20089;-80
2023/07/18 08:58:37;;;;;;;11.63;10.43;;;31.90;99.90;;;;;;4993772;28;20093;-80
2023/07/18 09:01:04;;;;;;;15.15;10.50;;;31.90;99.90;;;;;;4994847;28;20050;-81
2023/07/18 09:03:32;;;;;;;12.00;10.75;;;32.00;99.90;;;;;;4994683;28;20061;-79
2023/07/18 09:06:02;;;;;;;12.80;10.45;;;32.00;99.90;;;;;;4993501;28;20046;-81
2023/07/18 09:08:32;;;;;;;14.95;11.25;;;32.30;99.90;;;;;;4995331;28;20108;-80
2023/07/18 09:11:03;;;;;;;12.20;10.32;;;32.50;99.90;;;;;;4994767;28;20592;-80
2023/07/18 09:13:38;;;;;;;12.07;10.68;;;32.60;99.90;;;;;;4994835;28;20489;-79
2023/07/18 09:16:13;;;;;;;12.45;10.50;;;32.60;99.90;;;;;;4996007;28;20299;-80
2023/07/18 09:18:44;;;;;;;16.08;11.25;;;32.80;99.90;;;;;;4993242;28;20045;-81
2023/07/18 09:21:13;;;;;;;11.98;10.77;;;33.00;99.90;;;;;;4996622;28;20066;-81
2023/07/18 09:23:41;;;;;;;12.95;11.75;;;33.20;99.90;;;;;;5001223;28;20111;-80
2023/07/18 09:26:10;;;;;;;13.57;12.18;;;33.50;99.90;;;;;;4994018;28;20042;-81
2023/07/18 09:28:38;;;;;;;13.77;11.18;;;33.50;99.90;;;;;;4994666;28;20437;-80
2023/07/18 09:31:17;;;;;;;14.55;10.20;;;33.30;99.90;;;;;;4996650;28;20050;-81
2023/07/18 09:33:45;;;;;;;15.55;10.13;;;33.20;99.90;;;;;;4994886;28;20582;-80
2023/07/18 09:36:18;;;;;;;12.50;9.65;;;33.40;99.90;;;;;;4994697;28;20043;-80
2023/07/18 09:38:46;;;;;;;12.07;9.07;;;33.20;99.90;;;;;;4994145;28;20054;-81
2023/07/18 09:41:16;;;;;;;13.40;10.10;;;33.00;99.90;;;;;;4994861;28;20042;-80
2023/07/18 09:43:44;;;;;;;14.40;11.80;;;32.90;99.90;;;;;;4992516;28;20799;-82
2023/07/18 09:46:13;;;;;;;15.60;11.40;;;33.20;99.90;;;;;;4993802;28;20049;-81
2023/07/18 09:48:41;;;;;;;11.70;9.93;;;33.50;99.90;;;;;;4992972;28;20034;-79
2023/07/18 09:51:11;;;;;;;11.63;10.38;;;33.40;99.90;;;;;;4994361;28;20046;-77
2023/07/18 09:53:43;;;;;;;13.45;11.95;;;33.60;99.90;;;;;;4994146;28;20042;-76
2023/07/18 09:56:14;;;;;;;17.83;10.73;;;33.70;99.90;;;;;;4993462;28;20038;-78
2023/07/18 09:58:44;;;;;;;12.25;11.05;;;33.30;99.90;;;;;;4993545;28;20303;-78
2023/07/18 10:01:13;;;;;;;12.95;10.30;;;33.30;99.90;;;;;;4993958;28;20046;-79
2023/07/18 10:03:41;;;;;;;13.88;11.02;;;33.20;99.90;;;;;;4993935;28;20124;-79
2023/07/18 10:06:12;;;;;;;10.95;9.40;;;33.20;99.90;;;;;;4993980;28;20073;-79
2023/07/18 10:08:44;;;;;;;14.23;10.73;;;33.20;99.90;;;;;;4995907;28;20040;-80
2023/07/18 10:11:12;;;;;;;14.23;10.32;;;33.50;99.90;;;;;;4995972;28;20045;-79
2023/07/18 10:14:03;;;;;;;12.38;11.02;;;33.90;99.90;;;;;;4994876;28;20650;-80
2023/07/18 10:16:32;;;;;;;16.00;12.65;;;34.20;99.90;;;;;;4994981;28;20513;-80
2023/07/18 10:18:59;;;;;;;14.80;12.60;;;33.80;99.90;;;;;;4994063;28;20089;-80
2023/07/18 10:21:32;;;;;;;17.98;10.90;;;33.50;99.90;;;;;;4996942;28;20043;-80
2023/07/18 10:24:24;;;;;;;14.02;12.35;;;33.30;99.90;;;;;;5012620;28;20045;-81
2023/07/18 10:26:54;;;;;;;16.17;11.93;;;33.40;99.90;;;;;;5014340;28;20034;-80
2023/07/18 10:29:21;;;;;;;19.65;15.02;;;33.50;99.90;;;;;;5002130;28;20718;-79
2023/07/18 10:31:57;;;;;;;11.90;10.90;;;33.50;99.90;;;;;;4998483;28;20046;-80
2023/07/18 10:34:24;;;;;;;18.05;10.05;;;33.40;99.90;;;;;;4999455;28;20125;-78
2023/07/18 10:36:57;;;;;;;12.82;9.40;;;33.20;99.90;;;;;;4997332;28;20721;-78
2023/07/18 10:39:41;;;;;;;10.40;9.30;;;33.50;99.90;;;;;;4998081;28;20046;-76
2023/07/18 10:42:10;;;;;;;12.13;9.73;;;33.70;99.90;;;;;;4994526;28;20137;-80
2023/07/18 10:44:38;;;;;;;10.43;9.32;;;33.80;99.90;;;;;;4998158;28;20481;-79
2023/07/18 10:47:24;;;;;;;10.15;8.32;;;33.90;99.90;;;;;;4997332;28;20413;-79
2023/07/18 10:49:52;;;;;;;10.02;7.68;;;33.90;99.90;;;;;;4996758;28;20039;-82
2023/07/18 10:52:21;;;;;;;10.98;8.20;;;33.90;99.90;;;;;;4996126;28;20050;-80
2023/07/18 10:54:55;;;;;;;14.43;8.15;;;33.70;99.90;;;;;;4998298;28;20134;-82
2023/07/18 10:57:27;;;;;;;12.23;6.70;;;33.70;99.90;;;;;;4998537;28;20054;-80
2023/07/18 10:59:54;;;;;;;7.47;6.20;;;33.80;99.90;;;;;;4997676;28;20589;-79
2023/07/18 11:02:22;;;;;;;10.98;5.85;;;33.90;99.90;;;;;;4995377;28;20046;-80
2023/07/18 11:04:51;;;;;;;7.28;6.18;;;33.90;99.90;;;;;;4997013;28;20122;-80
2023/07/18 11:07:18;;;;;;;9.23;5.03;;;33.90;99.90;;;;;;4996151;28;20096;-82
2023/07/18 11:09:45;;;;;;;8.98;5.32;;;33.80;99.90;;;;;;4996718;28;20070;-84
2023/07/18 11:12:26;;;;;;;27.80;21.05;;;33.80;99.90;;;;;;4998453;28;20042;-82
2023/07/18 11:14:56;;;;;;;10.93;7.78;;;33.70;99.90;;;;;;4997772;28;20081;-78
2023/07/18 11:17:26;;;;;;;9.48;6.47;;;33.70;99.90;;;;;;4996025;28;20037;-78
2023/07/18 11:19:57;;;;;;;46.40;36.60;;;33.60;99.90;;;;;;4995396;28;20121;-76
2023/07/18 11:22:25;;;;;;;10.10;7.28;;;33.70;99.90;;;;;;4997988;28;20040;-78
2023/07/18 11:24:53;;;;;;;7.75;6.75;;;33.70;99.90;;;;;;4999086;28;20042;-83
2023/07/18 11:27:22;;;;;;;15.13;11.68;;;33.60;99.90;;;;;;4996913;28;20038;-79
2023/07/18 11:29:55;;;;;;;7.80;5.95;;;33.50;99.90;;;;;;4995550;28;20057;-79
2023/07/18 11:32:33;;;;;;;7.85;5.93;;;33.50;99.90;;;;;;4998370;28;20117;-80
2023/07/18 11:35:01;;;;;;;10.35;7.93;;;33.50;99.90;;;;;;4995404;28;20054;-80
2023/07/18 11:37:29;;;;;;;7.57;6.05;;;33.50;99.90;;;;;;4998747;28;20061;-81
2023/07/18 11:40:00;;;;;;;6.65;5.95;;;33.50;99.90;;;;;;4998316;28;20042;-81
2023/07/18 11:42:43;;;;;;;10.25;5.90;;;33.60;99.90;;;;;;4998394;28;20121;-80
2023/07/18 11:45:12;;;;;;;8.77;5.40;;;33.40;99.90;;;;;;4996075;28;20413;-82
2023/07/18 11:47:47;;;;;;;9.38;6.35;;;33.20;99.90;;;;;;4997155;28;20037;-79
2023/07/18 11:50:15;;;;;;;8.60;5.63;;;33.10;99.90;;;;;;4996020;28;20473;-79
2023/07/18 11:52:46;;;;;;;7.07;5.82;;;33.10;99.90;;;;;;4996280;28;20116;-78
2023/07/18 11:55:14;;;;;;;10.55;6.13;;;33.10;99.90;;;;;;4995771;28;20066;-77
2023/07/18 11:57:42;;;;;;;7.53;6.38;;;33.10;99.90;;;;;;4996035;28;20090;-79
2023/07/18 12:00:18;;;;;;;10.30;6.78;;;33.10;99.90;;;;;;4998969;28;20088;-78
2023/07/18 12:02:45;;;;;;;8.73;5.93;;;33.20;99.90;;;;;;4997057;28;20057;-80
2023/07/18 12:05:14;;;;;;;9.40;6.45;;;33.20;99.90;;;;;;4997882;28;20030;-79
2023/07/18 12:07:43;;;;;;;7.88;6.40;;;33.20;99.90;;;;;;4994617;28;20458;-79
2023/07/18 12:10:11;;;;;;;11.10;7.63;;;33.20;99.90;;;;;;4992339;28;20125;-77
2023/07/18 12:12:39;;;;;;;9.05;6.10;;;33.20;99.90;;;;;;4994297;28;20056;-79
2023/07/18 12:15:07;;;;;;;8.13;7.28;;;33.20;99.90;;;;;;4996058;28;20038;-80
2023/07/18 12:17:42;;;;;;;10.77;6.90;;;33.20;99.90;;;;;;4994669;28;20082;-82
2023/07/18 12:20:11;;;;;;;6.95;6.00;;;33.30;99.90;;;;;;4994856;28;20038;-78
2023/07/18 12:22:39;;;;;;;7.32;6.55;;;33.30;99.90;;;;;;4996599;28;20038;-78
2023/07/18 12:25:10;;;;;;;11.13;6.15;;;33.30;99.90;;;;;;4995480;28;20070;-80
2023/07/18 12:27:38;;;;;;;8.80;6.47;;;33.30;99.90;;;;;;4995755;28;20250;-80
2023/07/18 12:30:09;;;;;;;8.82;6.30;;;33.30;99.90;;;;;;4996417;28;20045;-80
2023/07/18 12:32:37;;;;;;;12.00;5.40;;;33.30;99.90;;;;;;4994350;28;20123;-79
2023/07/18 12:35:06;;;;;;;10.90;8.48;;;33.40;99.90;;;;;;4996699;28;20053;-81
2023/07/18 12:37:33;;;;;;;7.07;5.10;;;33.50;99.90;;;;;;4995333;28;20034;-78
2023/07/18 12:40:00;;;;;;;11.68;9.43;;;33.50;99.90;;;;;;4996808;28;20041;-80